DRS weather

Dresden Airport
Dresden, Saxony, Germany

Public forecast

Using degrees Celsius for public forecast. Weather courtesy of forecast.io.

Current aviation weather report (METAR) for Dresden Airport

Retrieved 2019/12/11 13:20 UTC (19 minutes ago):

EDDC 111320Z 15012KT 110V170 CAVOK 04/M05 Q1010 TEMPO 15015G25KT

Aviation forecast (TAF) for Dresden Airport

Retrieved 2019/12/11 12:27 UTC (1 hour ago):

TAF EDDC 111100Z 1112/1212 15008KT 9999 FEW040 BECMG 1121/1124 3000 -SNRA BKN010 TEMPO 1123/1208 2000 -SN BKN003 BECMG 1209/1212 8000 SCT020